Bayview, South Carolina
Current Conditions -  °F | °C
As of 12:53 PM on Thursday 30 Oct 2014 (Local Time) from KCUB Reporting Station
Clear Clear  
Wind Chill: 69°   Ceiling: Unl
Heat Index: 69°   Visibility: 10mi
Dew Point: 43°   Wind: 5mph
Humidity: 39%   Direction: NA
Pressure: 30.03"   Gusts: NA
Location:  34.0268°N, 81.0007°W
Report Text: KCUB 301653Z AUTO VRB04KT 10SM CLR 21/06 A3003 RMK AO2 SLP167 T02060061
Loading
Personal Weather Stations






























Interactive Weather Map
Tropical Storm Tracking
New forecast layout! Learn more

10-Day Weather Forecast

Advertisements
Track Severe Weather on mobile